sensor_id;sensor_type;location;lat;lon;timestamp;temperature;humidity
563;DHT22;266;49.514;8.294;2022-11-20T00:01:07;3.30;99.90
563;DHT22;266;49.514;8.294;2022-11-20T00:03:35;3.30;99.90
563;DHT22;266;49.514;8.294;2022-11-20T00:06:05;3.20;99.90
563;DHT22;266;49.514;8.294;2022-11-20T00:08:33;3.20;99.90
563;DHT22;266;49.514;8.294;2022-11-20T00:11:03;3.30;99.90
563;DHT22;266;49.514;8.294;2022-11-20T00:13:31;3.20;99.90
563;DHT22;266;49.514;8.294;2022-11-20T00:16:02;3.20;99.90
563;DHT22;266;49.514;8.294;2022-11-20T00:18:32;3.20;99.90
563;DHT22;266;49.514;8.294;2022-11-20T00:21:01;3.30;99.90
563;DHT22;266;49.514;8.294;2022-11-20T00:23:29;3.30;99.90
563;DHT22;266;49.514;8.294;2022-11-20T00:26:02;3.30;99.90
563;DHT22;266;49.514;8.294;2022-11-20T00:28:31;3.30;99.90
563;DHT22;266;49.514;8.294;2022-11-20T00:31:05;3.30;99.90
563;DHT22;266;49.514;8.294;2022-11-20T00:33:33;3.30;99.90
563;DHT22;266;49.514;8.294;2022-11-20T00:36:02;3.40;99.90
563;DHT22;266;49.514;8.294;2022-11-20T00:38:30;3.40;99.90
563;DHT22;266;49.514;8.294;2022-11-20T00:40:59;3.40;99.90
563;DHT22;266;49.514;8.294;2022-11-20T00:43:28;3.30;99.90
563;DHT22;266;49.514;8.294;2022-11-20T00:45:57;3.40;99.90
563;DHT22;266;49.514;8.294;2022-11-20T00:48:26;3.40;99.90
563;DHT22;266;49.514;8.294;2022-11-20T00:50:55;3.30;99.90
563;DHT22;266;49.514;8.294;2022-11-20T00:53:23;3.40;99.90
563;DHT22;266;49.514;8.294;2022-11-20T00:55:56;3.40;99.90
563;DHT22;266;49.514;8.294;2022-11-20T00:58:25;3.40;99.90
563;DHT22;266;49.514;8.294;2022-11-20T01:01:00;3.40;99.90
563;DHT22;266;49.514;8.294;2022-11-20T01:03:32;3.40;99.90
563;DHT22;266;49.514;8.294;2022-11-20T01:06:01;3.40;99.90
563;DHT22;266;49.514;8.294;2022-11-20T01:08:30;3.40;99.90
563;DHT22;266;49.514;8.294;2022-11-20T01:11:00;3.40;99.90
563;DHT22;266;49.514;8.294;2022-11-20T01:13:29;3.40;99.90
563;DHT22;266;49.514;8.294;2022-11-20T01:16:09;3.40;99.90
563;DHT22;266;49.514;8.294;2022-11-20T01:18:40;3.40;99.90
563;DHT22;266;49.514;8.294;2022-11-20T01:21:10;3.40;99.90
563;DHT22;266;49.514;8.294;2022-11-20T01:23:40;3.40;99.90
563;DHT22;266;49.514;8.294;2022-11-20T01:26:10;3.40;99.90
563;DHT22;266;49.514;8.294;2022-11-20T01:28:38;3.50;99.90
563;DHT22;266;49.514;8.294;2022-11-20T01:31:13;3.50;99.90
563;DHT22;266;49.514;8.294;2022-11-20T01:33:43;3.50;99.90
563;DHT22;266;49.514;8.294;2022-11-20T01:36:12;3.50;99.90
563;DHT22;266;49.514;8.294;2022-11-20T01:38:41;3.40;99.90
563;DHT22;266;49.514;8.294;2022-11-20T01:41:09;3.40;99.90
563;DHT22;266;49.514;8.294;2022-11-20T01:43:37;3.40;99.90
563;DHT22;266;49.514;8.294;2022-11-20T01:46:15;3.40;99.90
563;DHT22;266;49.514;8.294;2022-11-20T01:48:49;3.40;99.90
563;DHT22;266;49.514;8.294;2022-11-20T01:51:25;3.40;99.90
563;DHT22;266;49.514;8.294;2022-11-20T01:53:55;3.50;99.90
563;DHT22;266;49.514;8.294;2022-11-20T01:56:25;3.50;99.90
563;DHT22;266;49.514;8.294;2022-11-20T01:58:58;3.50;99.90
563;DHT22;266;49.514;8.294;2022-11-20T02:01:27;3.50;99.90
563;DHT22;266;49.514;8.294;2022-11-20T02:03:58;3.50;99.90
563;DHT22;266;49.514;8.294;2022-11-20T02:06:29;3.50;99.90
563;DHT22;266;49.514;8.294;2022-11-20T02:08:58;3.50;99.90
563;DHT22;266;49.514;8.294;2022-11-20T02:11:27;3.50;99.90
563;DHT22;266;49.514;8.294;2022-11-20T02:13:57;3.50;99.90
563;DHT22;266;49.514;8.294;2022-11-20T02:16:27;3.50;99.90
563;DHT22;266;49.514;8.294;2022-11-20T02:18:59;3.60;99.90
563;DHT22;266;49.514;8.294;2022-11-20T02:21:35;3.50;99.90
563;DHT22;266;49.514;8.294;2022-11-20T02:24:08;3.50;99.90
563;DHT22;266;49.514;8.294;2022-11-20T02:26:44;3.50;99.90
563;DHT22;266;49.514;8.294;2022-11-20T02:29:15;3.50;99.90
563;DHT22;266;49.514;8.294;2022-11-20T02:31:45;3.50;99.90
563;DHT22;266;49.514;8.294;2022-11-20T02:34:13;3.60;99.90
563;DHT22;266;49.514;8.294;2022-11-20T02:36:41;3.50;99.90
563;DHT22;266;49.514;8.294;2022-11-20T02:39:13;3.50;99.90
563;DHT22;266;49.514;8.294;2022-11-20T02:41:43;3.50;99.90
563;DHT22;266;49.514;8.294;2022-11-20T02:44:11;3.50;99.90
563;DHT22;266;49.514;8.294;2022-11-20T02:46:39;3.70;99.90
563;DHT22;266;49.514;8.294;2022-11-20T02:49:07;3.70;99.90
563;DHT22;266;49.514;8.294;2022-11-20T02:51:35;3.60;99.90
563;DHT22;266;49.514;8.294;2022-11-20T02:54:03;3.60;99.90
563;DHT22;266;49.514;8.294;2022-11-20T02:56:32;3.60;99.90
563;DHT22;266;49.514;8.294;2022-11-20T02:59:00;3.40;99.90
563;DHT22;266;49.514;8.294;2022-11-20T03:01:28;3.50;99.90
563;DHT22;266;49.514;8.294;2022-11-20T03:03:56;3.50;99.90
563;DHT22;266;49.514;8.294;2022-11-20T03:06:24;3.60;99.90
563;DHT22;266;49.514;8.294;2022-11-20T03:08:52;3.60;99.90
563;DHT22;266;49.514;8.294;2022-11-20T03:11:20;3.70;99.90
563;DHT22;266;49.514;8.294;2022-11-20T03:13:49;3.60;99.90
563;DHT22;266;49.514;8.294;2022-11-20T03:16:19;3.60;99.90
563;DHT22;266;49.514;8.294;2022-11-20T03:18:47;3.50;99.90
563;DHT22;266;49.514;8.294;2022-11-20T03:21:16;3.50;99.90
563;DHT22;266;49.514;8.294;2022-11-20T03:23:45;3.50;99.90
563;DHT22;266;49.514;8.294;2022-11-20T03:26:15;3.50;99.90
563;DHT22;266;49.514;8.294;2022-11-20T03:28:47;3.50;99.90
563;DHT22;266;49.514;8.294;2022-11-20T03:31:18;3.50;99.90
563;DHT22;266;49.514;8.294;2022-11-20T03:33:47;3.60;99.90
563;DHT22;266;49.514;8.294;2022-11-20T03:36:16;3.60;99.90
563;DHT22;266;49.514;8.294;2022-11-20T03:38:44;3.60;99.90
563;DHT22;266;49.514;8.294;2022-11-20T03:41:15;3.60;99.90
563;DHT22;266;49.514;8.294;2022-11-20T03:43:47;3.70;99.90
563;DHT22;266;49.514;8.294;2022-11-20T03:46:17;3.70;99.90
563;DHT22;266;49.514;8.294;2022-11-20T03:48:55;3.80;99.90
563;DHT22;266;49.514;8.294;2022-11-20T03:51:24;3.80;99.90
563;DHT22;266;49.514;8.294;2022-11-20T03:53:54;3.70;99.90
563;DHT22;266;49.514;8.294;2022-11-20T03:56:24;3.60;99.90
563;DHT22;266;49.514;8.294;2022-11-20T03:58:52;3.60;99.90
563;DHT22;266;49.514;8.294;2022-11-20T04:01:23;3.60;99.90
563;DHT22;266;49.514;8.294;2022-11-20T04:03:53;3.60;99.90
563;DHT22;266;49.514;8.294;2022-11-20T04:06:22;3.60;99.90
563;DHT22;266;49.514;8.294;2022-11-20T04:08:51;3.60;99.90
563;DHT22;266;49.514;8.294;2022-11-20T04:11:22;3.50;99.90
563;DHT22;266;49.514;8.294;2022-11-20T04:13:52;3.60;99.90
563;DHT22;266;49.514;8.294;2022-11-20T04:16:22;3.50;99.90
563;DHT22;266;49.514;8.294;2022-11-20T04:18:52;3.50;99.90
563;DHT22;266;49.514;8.294;2022-11-20T04:21:21;3.50;99.90
563;DHT22;266;49.514;8.294;2022-11-20T04:23:49;3.50;99.90
563;DHT22;266;49.514;8.294;2022-11-20T04:26:17;3.60;99.90
563;DHT22;266;49.514;8.294;2022-11-20T04:28:45;3.60;99.90
563;DHT22;266;49.514;8.294;2022-11-20T04:31:14;3.60;99.90
563;DHT22;266;49.514;8.294;2022-11-20T04:33:43;3.60;99.90
563;DHT22;266;49.514;8.294;2022-11-20T04:36:13;3.60;99.90
563;DHT22;266;49.514;8.294;2022-11-20T04:38:42;3.60;99.90
563;DHT22;266;49.514;8.294;2022-11-20T04:41:14;3.70;99.90
563;DHT22;266;49.514;8.294;2022-11-20T04:43:46;3.60;99.90
563;DHT22;266;49.514;8.294;2022-11-20T04:46:15;3.70;99.90
563;DHT22;266;49.514;8.294;2022-11-20T04:48:45;3.70;99.90
563;DHT22;266;49.514;8.294;2022-11-20T04:51:13;3.60;99.90
563;DHT22;266;49.514;8.294;2022-11-20T04:53:41;3.70;99.90
563;DHT22;266;49.514;8.294;2022-11-20T04:56:10;3.60;99.90
563;DHT22;266;49.514;8.294;2022-11-20T04:58:40;3.60;99.90
563;DHT22;266;49.514;8.294;2022-11-20T05:01:10;3.60;99.90
563;DHT22;266;49.514;8.294;2022-11-20T05:03:38;3.60;99.90
563;DHT22;266;49.514;8.294;2022-11-20T05:06:11;3.60;99.90
563;DHT22;266;49.514;8.294;2022-11-20T05:08:39;3.70;99.90
563;DHT22;266;49.514;8.294;2022-11-20T05:11:09;3.70;99.90
563;DHT22;266;49.514;8.294;2022-11-20T05:13:37;3.70;99.90
563;DHT22;266;49.514;8.294;2022-11-20T05:16:07;3.70;99.90
563;DHT22;266;49.514;8.294;2022-11-20T05:18:36;3.70;99.90
563;DHT22;266;49.514;8.294;2022-11-20T05:21:05;3.90;99.90
563;DHT22;266;49.514;8.294;2022-11-20T05:23:35;4.00;99.90
563;DHT22;266;49.514;8.294;2022-11-20T05:26:05;4.00;99.90
563;DHT22;266;49.514;8.294;2022-11-20T05:28:33;3.90;99.90
563;DHT22;266;49.514;8.294;2022-11-20T05:31:05;3.80;99.90
563;DHT22;266;49.514;8.294;2022-11-20T05:33:34;3.80;99.90
563;DHT22;266;49.514;8.294;2022-11-20T05:36:02;3.80;99.90
563;DHT22;266;49.514;8.294;2022-11-20T05:38:31;3.80;99.90
563;DHT22;266;49.514;8.294;2022-11-20T05:41:08;3.80;99.90
563;DHT22;266;49.514;8.294;2022-11-20T05:43:37;3.70;99.90
563;DHT22;266;49.514;8.294;2022-11-20T05:46:06;3.80;99.90
563;DHT22;266;49.514;8.294;2022-11-20T05:48:36;3.80;99.90
563;DHT22;266;49.514;8.294;2022-11-20T05:51:06;3.80;99.90
563;DHT22;266;49.514;8.294;2022-11-20T05:53:35;3.80;99.90
563;DHT22;266;49.514;8.294;2022-11-20T05:56:05;3.80;99.90
563;DHT22;266;49.514;8.294;2022-11-20T05:58:36;3.80;99.90
563;DHT22;266;49.514;8.294;2022-11-20T06:01:07;3.70;99.90
563;DHT22;266;49.514;8.294;2022-11-20T06:03:35;3.70;99.90
563;DHT22;266;49.514;8.294;2022-11-20T06:06:04;3.70;99.90
563;DHT22;266;49.514;8.294;2022-11-20T06:08:32;3.70;99.90
563;DHT22;266;49.514;8.294;2022-11-20T06:11:04;3.70;99.90
563;DHT22;266;49.514;8.294;2022-11-20T06:13:32;3.70;99.90
563;DHT22;266;49.514;8.294;2022-11-20T06:16:08;3.70;99.90
563;DHT22;266;49.514;8.294;2022-11-20T06:18:36;3.80;99.90
563;DHT22;266;49.514;8.294;2022-11-20T06:21:06;3.80;99.90
563;DHT22;266;49.514;8.294;2022-11-20T06:23:35;3.80;99.90
563;DHT22;266;49.514;8.294;2022-11-20T06:26:04;3.80;99.90
563;DHT22;266;49.514;8.294;2022-11-20T06:28:33;3.80;99.90
563;DHT22;266;49.514;8.294;2022-11-20T06:31:01;3.80;99.90
563;DHT22;266;49.514;8.294;2022-11-20T06:33:31;3.90;99.90
563;DHT22;266;49.514;8.294;2022-11-20T06:36:00;3.80;99.90
563;DHT22;266;49.514;8.294;2022-11-20T06:38:36;3.90;99.90
563;DHT22;266;49.514;8.294;2022-11-20T06:41:04;3.90;99.90
563;DHT22;266;49.514;8.294;2022-11-20T06:43:33;3.80;99.90
563;DHT22;266;49.514;8.294;2022-11-20T06:46:00;3.90;99.90
563;DHT22;266;49.514;8.294;2022-11-20T06:48:30;3.90;99.90
563;DHT22;266;49.514;8.294;2022-11-20T06:50:59;3.90;99.90
563;DHT22;266;49.514;8.294;2022-11-20T06:53:27;3.90;99.90
563;DHT22;266;49.514;8.294;2022-11-20T06:55:56;3.90;99.90
563;DHT22;266;49.514;8.294;2022-11-20T06:58:27;3.90;99.90
563;DHT22;266;49.514;8.294;2022-11-20T07:00:58;3.90;99.90
563;DHT22;266;49.514;8.294;2022-11-20T07:03:26;3.90;99.90
563;DHT22;266;49.514;8.294;2022-11-20T07:05:56;4.00;99.90
563;DHT22;266;49.514;8.294;2022-11-20T07:08:25;4.00;99.90
563;DHT22;266;49.514;8.294;2022-11-20T07:10:52;4.00;99.90
563;DHT22;266;49.514;8.294;2022-11-20T07:13:24;4.00;99.90
563;DHT22;266;49.514;8.294;2022-11-20T07:15:52;4.00;99.90
563;DHT22;266;49.514;8.294;2022-11-20T07:18:20;4.00;99.90
563;DHT22;266;49.514;8.294;2022-11-20T07:20:48;4.00;99.90
563;DHT22;266;49.514;8.294;2022-11-20T07:23:17;4.00;99.90
563;DHT22;266;49.514;8.294;2022-11-20T07:25:45;4.00;99.90
563;DHT22;266;49.514;8.294;2022-11-20T07:28:13;4.00;99.90
563;DHT22;266;49.514;8.294;2022-11-20T07:30:42;4.10;99.90
563;DHT22;266;49.514;8.294;2022-11-20T07:33:10;4.10;99.90
563;DHT22;266;49.514;8.294;2022-11-20T07:35:38;4.10;99.90
563;DHT22;266;49.514;8.294;2022-11-20T07:38:05;4.10;99.90
563;DHT22;266;49.514;8.294;2022-11-20T07:40:36;4.20;99.90
563;DHT22;266;49.514;8.294;2022-11-20T07:43:04;4.10;99.90
563;DHT22;266;49.514;8.294;2022-11-20T07:45:34;4.20;99.90
563;DHT22;266;49.514;8.294;2022-11-20T07:48:03;4.20;99.90
563;DHT22;266;49.514;8.294;2022-11-20T07:50:31;4.20;99.90
563;DHT22;266;49.514;8.294;2022-11-20T07:53:02;4.20;99.90
563;DHT22;266;49.514;8.294;2022-11-20T07:55:31;4.20;99.90
563;DHT22;266;49.514;8.294;2022-11-20T07:58:00;4.30;99.90
563;DHT22;266;49.514;8.294;2022-11-20T08:00:28;4.30;99.90
563;DHT22;266;49.514;8.294;2022-11-20T08:02:56;4.30;99.90
563;DHT22;266;49.514;8.294;2022-11-20T08:05:25;4.30;99.90
563;DHT22;266;49.514;8.294;2022-11-20T08:07:53;4.40;99.90
563;DHT22;266;49.514;8.294;2022-11-20T08:10:21;4.40;99.90
563;DHT22;266;49.514;8.294;2022-11-20T08:12:50;4.40;99.90
563;DHT22;266;49.514;8.294;2022-11-20T08:15:38;4.40;99.90
563;DHT22;266;49.514;8.294;2022-11-20T08:18:08;4.40;99.90
563;DHT22;266;49.514;8.294;2022-11-20T08:20:57;4.40;99.90
563;DHT22;266;49.514;8.294;2022-11-20T08:23:25;4.40;99.90
563;DHT22;266;49.514;8.294;2022-11-20T08:25:53;4.40;99.90
563;DHT22;266;49.514;8.294;2022-11-20T08:28:20;4.40;99.90
563;DHT22;266;49.514;8.294;2022-11-20T08:30:50;4.30;99.90
563;DHT22;266;49.514;8.294;2022-11-20T08:33:18;4.40;99.90
563;DHT22;266;49.514;8.294;2022-11-20T08:35:46;4.40;99.90
563;DHT22;266;49.514;8.294;2022-11-20T08:38:13;4.40;99.90
563;DHT22;266;49.514;8.294;2022-11-20T08:40:42;4.40;99.90
563;DHT22;266;49.514;8.294;2022-11-20T08:43:31;4.40;99.90
563;DHT22;266;49.514;8.294;2022-11-20T08:46:01;4.40;99.90
563;DHT22;266;49.514;8.294;2022-11-20T08:48:29;4.40;99.90
563;DHT22;266;49.514;8.294;2022-11-20T08:50:58;4.40;99.90
563;DHT22;266;49.514;8.294;2022-11-20T08:53:26;4.40;99.90
563;DHT22;266;49.514;8.294;2022-11-20T08:55:54;4.40;99.90
563;DHT22;266;49.514;8.294;2022-11-20T08:58:22;4.40;99.90
563;DHT22;266;49.514;8.294;2022-11-20T09:00:50;4.40;99.90
563;DHT22;266;49.514;8.294;2022-11-20T09:03:19;4.40;99.90
563;DHT22;266;49.514;8.294;2022-11-20T09:05:47;4.50;99.90
563;DHT22;266;49.514;8.294;2022-11-20T09:08:15;4.50;99.90
563;DHT22;266;49.514;8.294;2022-11-20T09:10:43;4.50;99.90
563;DHT22;266;49.514;8.294;2022-11-20T09:13:11;4.50;99.90
563;DHT22;266;49.514;8.294;2022-11-20T09:15:39;4.60;99.90
563;DHT22;266;49.514;8.294;2022-11-20T09:18:07;4.60;99.90
563;DHT22;266;49.514;8.294;2022-11-20T09:20:36;4.60;99.90
563;DHT22;266;49.514;8.294;2022-11-20T09:23:04;4.60;99.90
563;DHT22;266;49.514;8.294;2022-11-20T09:25:32;4.70;99.90
563;DHT22;266;49.514;8.294;2022-11-20T09:28:00;4.70;99.90
563;DHT22;266;49.514;8.294;2022-11-20T09:30:28;4.80;99.90
563;DHT22;266;49.514;8.294;2022-11-20T09:32:57;4.80;99.90
563;DHT22;266;49.514;8.294;2022-11-20T09:35:25;4.80;99.90
563;DHT22;266;49.514;8.294;2022-11-20T09:37:54;4.80;99.90
563;DHT22;266;49.514;8.294;2022-11-20T09:40:24;4.80;99.90
563;DHT22;266;49.514;8.294;2022-11-20T09:42:57;4.80;99.90
563;DHT22;266;49.514;8.294;2022-11-20T09:45:37;4.80;99.90
563;DHT22;266;49.514;8.294;2022-11-20T09:48:26;4.90;99.90
563;DHT22;266;49.514;8.294;2022-11-20T09:51:02;4.90;99.90
563;DHT22;266;49.514;8.294;2022-11-20T09:53:42;4.90;99.90
563;DHT22;266;49.514;8.294;2022-11-20T09:56:14;5.00;99.90
563;DHT22;266;49.514;8.294;2022-11-20T09:58:50;5.00;99.90
563;DHT22;266;49.514;8.294;2022-11-20T10:01:21;4.90;99.90
563;DHT22;266;49.514;8.294;2022-11-20T10:03:55;4.90;99.90
563;DHT22;266;49.514;8.294;2022-11-20T10:06:29;4.90;99.90
563;DHT22;266;49.514;8.294;2022-11-20T10:09:06;4.90;99.90
563;DHT22;266;49.514;8.294;2022-11-20T10:11:48;4.90;99.90
563;DHT22;266;49.514;8.294;2022-11-20T10:14:26;5.00;99.90
563;DHT22;266;49.514;8.294;2022-11-20T10:17:03;5.10;99.90
563;DHT22;266;49.514;8.294;2022-11-20T10:19:46;5.20;99.90
563;DHT22;266;49.514;8.294;2022-11-20T10:22:25;5.40;99.90
563;DHT22;266;49.514;8.294;2022-11-20T10:25:06;5.40;99.90
563;DHT22;266;49.514;8.294;2022-11-20T10:30:31;5.40;99.90
563;DHT22;266;49.514;8.294;2022-11-20T10:33:06;5.50;99.90
563;DHT22;266;49.514;8.294;2022-11-20T10:35:41;5.40;99.90
563;DHT22;266;49.514;8.294;2022-11-20T10:38:14;5.30;99.90
563;DHT22;266;49.514;8.294;2022-11-20T10:40:47;5.20;99.90
563;DHT22;266;49.514;8.294;2022-11-20T10:43:19;5.20;99.90
563;DHT22;266;49.514;8.294;2022-11-20T10:45:52;5.30;99.90
563;DHT22;266;49.514;8.294;2022-11-20T10:48:24;5.40;99.90
563;DHT22;266;49.514;8.294;2022-11-20T10:51:03;5.40;99.90
563;DHT22;266;49.514;8.294;2022-11-20T10:53:56;5.40;99.90
563;DHT22;266;49.514;8.294;2022-11-20T10:56:32;5.50;99.90
563;DHT22;266;49.514;8.294;2022-11-20T10:59:22;5.50;99.90
563;DHT22;266;49.514;8.294;2022-11-20T11:01:55;5.80;99.90
563;DHT22;266;49.514;8.294;2022-11-20T11:04:35;5.80;99.90
563;DHT22;266;49.514;8.294;2022-11-20T11:07:10;6.10;99.90
563;DHT22;266;49.514;8.294;2022-11-20T11:09:43;6.20;99.90
563;DHT22;266;49.514;8.294;2022-11-20T11:12:13;6.50;99.90
563;DHT22;266;49.514;8.294;2022-11-20T11:14:43;6.80;99.90
563;DHT22;266;49.514;8.294;2022-11-20T11:17:23;7.20;99.90
563;DHT22;266;49.514;8.294;2022-11-20T11:19:58;7.30;99.90
563;DHT22;266;49.514;8.294;2022-11-20T11:22:28;7.30;99.90
563;DHT22;266;49.514;8.294;2022-11-20T11:24:56;7.30;99.90
563;DHT22;266;49.514;8.294;2022-11-20T11:27:26;7.40;99.90
563;DHT22;266;49.514;8.294;2022-11-20T11:30:03;7.30;99.90
563;DHT22;266;49.514;8.294;2022-11-20T11:32:38;7.40;99.90
563;DHT22;266;49.514;8.294;2022-11-20T11:35:22;7.50;99.90
563;DHT22;266;49.514;8.294;2022-11-20T11:37:51;7.50;99.90
563;DHT22;266;49.514;8.294;2022-11-20T11:40:22;7.60;99.90
563;DHT22;266;49.514;8.294;2022-11-20T11:42:58;7.60;99.90
563;DHT22;266;49.514;8.294;2022-11-20T11:45:27;7.60;99.90
563;DHT22;266;49.514;8.294;2022-11-20T11:47:57;7.70;99.90
563;DHT22;266;49.514;8.294;2022-11-20T11:50:26;7.90;99.90
563;DHT22;266;49.514;8.294;2022-11-20T11:52:59;8.10;99.90
563;DHT22;266;49.514;8.294;2022-11-20T11:55:33;8.10;99.90
563;DHT22;266;49.514;8.294;2022-11-20T11:58:11;8.30;99.90
563;DHT22;266;49.514;8.294;2022-11-20T12:00:41;8.50;99.90
563;DHT22;266;49.514;8.294;2022-11-20T12:03:16;8.60;99.90
563;DHT22;266;49.514;8.294;2022-11-20T12:05:48;8.60;99.90
563;DHT22;266;49.514;8.294;2022-11-20T12:08:21;8.70;99.90
563;DHT22;266;49.514;8.294;2022-11-20T12:10:56;8.60;99.90
563;DHT22;266;49.514;8.294;2022-11-20T12:13:35;8.60;99.90
563;DHT22;266;49.514;8.294;2022-11-20T12:16:04;8.60;99.90
563;DHT22;266;49.514;8.294;2022-11-20T12:18:33;8.50;99.90
563;DHT22;266;49.514;8.294;2022-11-20T12:24:17;8.70;99.90
563;DHT22;266;49.514;8.294;2022-11-20T12:26:57;8.70;99.90
563;DHT22;266;49.514;8.294;2022-11-20T12:29:40;8.80;99.90
563;DHT22;266;49.514;8.294;2022-11-20T12:32:32;8.90;99.90
563;DHT22;266;49.514;8.294;2022-11-20T12:35:11;8.90;99.90
563;DHT22;266;49.514;8.294;2022-11-20T12:37:48;8.90;99.90
563;DHT22;266;49.514;8.294;2022-11-20T12:40:31;9.00;99.90
563;DHT22;266;49.514;8.294;2022-11-20T12:43:11;8.90;99.90
563;DHT22;266;49.514;8.294;2022-11-20T12:46:13;8.90;99.90
563;DHT22;266;49.514;8.294;2022-11-20T12:48:53;8.90;99.90
563;DHT22;266;49.514;8.294;2022-11-20T12:51:34;8.90;99.90
563;DHT22;266;49.514;8.294;2022-11-20T12:54:20;8.90;99.90
563;DHT22;266;49.514;8.294;2022-11-20T12:56:57;8.90;99.90
563;DHT22;266;49.514;8.294;2022-11-20T12:59:47;9.00;99.90
563;DHT22;266;49.514;8.294;2022-11-20T13:02:25;9.00;99.90
563;DHT22;266;49.514;8.294;2022-11-20T13:07:52;9.10;99.90
563;DHT22;266;49.514;8.294;2022-11-20T13:10:26;9.30;99.90
563;DHT22;266;49.514;8.294;2022-11-20T13:13:01;9.30;99.90
563;DHT22;266;49.514;8.294;2022-11-20T13:15:40;9.30;99.90
563;DHT22;266;49.514;8.294;2022-11-20T13:18:14;9.40;99.90
563;DHT22;266;49.514;8.294;2022-11-20T13:20:43;9.50;99.90
563;DHT22;266;49.514;8.294;2022-11-20T13:23:11;9.60;99.90
563;DHT22;266;49.514;8.294;2022-11-20T13:25:39;9.60;99.90
563;DHT22;266;49.514;8.294;2022-11-20T13:28:28;9.60;99.90
563;DHT22;266;49.514;8.294;2022-11-20T13:30:58;9.60;99.90
563;DHT22;266;49.514;8.294;2022-11-20T13:33:30;9.70;99.90
563;DHT22;266;49.514;8.294;2022-11-20T13:36:00;9.80;99.90
563;DHT22;266;49.514;8.294;2022-11-20T13:38:41;9.80;99.90
563;DHT22;266;49.514;8.294;2022-11-20T13:41:10;9.90;99.90
563;DHT22;266;49.514;8.294;2022-11-20T13:44:04;9.80;99.90
563;DHT22;266;49.514;8.294;2022-11-20T13:46:36;9.70;99.90
563;DHT22;266;49.514;8.294;2022-11-20T13:49:18;9.80;99.90
563;DHT22;266;49.514;8.294;2022-11-20T13:51:50;9.70;99.90
563;DHT22;266;49.514;8.294;2022-11-20T13:54:55;9.90;99.90
563;DHT22;266;49.514;8.294;2022-11-20T13:57:51;10.00;99.90
563;DHT22;266;49.514;8.294;2022-11-20T14:00:22;9.90;99.90
563;DHT22;266;49.514;8.294;2022-11-20T14:03:01;9.90;99.90
563;DHT22;266;49.514;8.294;2022-11-20T14:05:35;9.90;99.90
563;DHT22;266;49.514;8.294;2022-11-20T14:08:04;9.80;99.90
563;DHT22;266;49.514;8.294;2022-11-20T14:10:34;9.70;99.90
563;DHT22;266;49.514;8.294;2022-11-20T14:13:15;9.70;99.90
563;DHT22;266;49.514;8.294;2022-11-20T14:15:45;9.60;99.90
563;DHT22;266;49.514;8.294;2022-11-20T14:18:15;9.50;99.90
563;DHT22;266;49.514;8.294;2022-11-20T14:20:48;9.50;99.90
563;DHT22;266;49.514;8.294;2022-11-20T14:23:24;9.50;99.90
563;DHT22;266;49.514;8.294;2022-11-20T14:25:56;9.40;99.90
563;DHT22;266;49.514;8.294;2022-11-20T14:28:26;9.40;99.90
563;DHT22;266;49.514;8.294;2022-11-20T14:30:55;9.40;99.90
563;DHT22;266;49.514;8.294;2022-11-20T14:33:25;9.30;99.90
563;DHT22;266;49.514;8.294;2022-11-20T14:35:56;9.30;99.90
563;DHT22;266;49.514;8.294;2022-11-20T14:38:27;9.30;99.90
563;DHT22;266;49.514;8.294;2022-11-20T14:41:06;9.40;99.90
563;DHT22;266;49.514;8.294;2022-11-20T14:43:34;9.30;99.90
563;DHT22;266;49.514;8.294;2022-11-20T14:46:05;9.30;99.90
563;DHT22;266;49.514;8.294;2022-11-20T14:48:36;9.30;99.90
563;DHT22;266;49.514;8.294;2022-11-20T14:51:09;9.30;99.90
563;DHT22;266;49.514;8.294;2022-11-20T14:53:37;9.30;99.90
563;DHT22;266;49.514;8.294;2022-11-20T14:56:05;9.20;99.90
563;DHT22;266;49.514;8.294;2022-11-20T14:58:33;9.20;99.90
563;DHT22;266;49.514;8.294;2022-11-20T15:01:03;9.20;99.90
563;DHT22;266;49.514;8.294;2022-11-20T15:03:32;9.10;99.90
563;DHT22;266;49.514;8.294;2022-11-20T15:06:00;9.10;99.90
563;DHT22;266;49.514;8.294;2022-11-20T15:08:30;9.10;99.90
563;DHT22;266;49.514;8.294;2022-11-20T15:10:58;9.00;99.90
563;DHT22;266;49.514;8.294;2022-11-20T15:13:30;9.00;99.90
563;DHT22;266;49.514;8.294;2022-11-20T15:16:00;8.90;99.90
563;DHT22;266;49.514;8.294;2022-11-20T15:18:31;8.90;99.90
563;DHT22;266;49.514;8.294;2022-11-20T15:21:02;8.80;99.90
563;DHT22;266;49.514;8.294;2022-11-20T15:23:32;8.80;99.90
563;DHT22;266;49.514;8.294;2022-11-20T15:26:00;8.70;99.90
563;DHT22;266;49.514;8.294;2022-11-20T15:28:30;8.70;99.90
563;DHT22;266;49.514;8.294;2022-11-20T15:30:59;8.60;99.90
563;DHT22;266;49.514;8.294;2022-11-20T15:33:29;8.60;99.90
563;DHT22;266;49.514;8.294;2022-11-20T15:35:57;8.70;99.90
563;DHT22;266;49.514;8.294;2022-11-20T15:38:25;8.60;99.90
563;DHT22;266;49.514;8.294;2022-11-20T15:40:54;8.60;99.90
563;DHT22;266;49.514;8.294;2022-11-20T15:43:22;8.60;99.90
563;DHT22;266;49.514;8.294;2022-11-20T15:45:53;8.60;99.90
563;DHT22;266;49.514;8.294;2022-11-20T15:48:23;8.60;99.90
563;DHT22;266;49.514;8.294;2022-11-20T15:50:56;8.50;99.90
563;DHT22;266;49.514;8.294;2022-11-20T15:53:24;8.50;99.90
563;DHT22;266;49.514;8.294;2022-11-20T15:55:53;8.50;99.90
563;DHT22;266;49.514;8.294;2022-11-20T15:58:22;8.50;99.90
563;DHT22;266;49.514;8.294;2022-11-20T16:00:50;8.40;99.90
563;DHT22;266;49.514;8.294;2022-11-20T16:03:18;8.40;99.90
563;DHT22;266;49.514;8.294;2022-11-20T16:05:46;8.40;99.90
563;DHT22;266;49.514;8.294;2022-11-20T16:08:15;8.40;99.90
563;DHT22;266;49.514;8.294;2022-11-20T16:10:42;8.40;99.90
563;DHT22;266;49.514;8.294;2022-11-20T16:13:17;8.30;99.90
563;DHT22;266;49.514;8.294;2022-11-20T16:16:04;8.30;99.90
563;DHT22;266;49.514;8.294;2022-11-20T16:18:33;8.30;99.90
563;DHT22;266;49.514;8.294;2022-11-20T16:21:01;8.30;99.90
563;DHT22;266;49.514;8.294;2022-11-20T16:23:30;8.40;99.90
563;DHT22;266;49.514;8.294;2022-11-20T16:25:58;8.30;99.90
563;DHT22;266;49.514;8.294;2022-11-20T16:28:27;8.30;99.90
563;DHT22;266;49.514;8.294;2022-11-20T16:30:55;8.20;99.90
563;DHT22;266;49.514;8.294;2022-11-20T16:33:23;8.20;99.90
563;DHT22;266;49.514;8.294;2022-11-20T16:35:51;8.20;99.90
563;DHT22;266;49.514;8.294;2022-11-20T16:38:19;8.20;99.90
563;DHT22;266;49.514;8.294;2022-11-20T16:40:47;8.30;99.90
563;DHT22;266;49.514;8.294;2022-11-20T16:43:15;8.40;99.90
563;DHT22;266;49.514;8.294;2022-11-20T16:45:45;8.40;99.90
563;DHT22;266;49.514;8.294;2022-11-20T16:48:15;8.40;99.90
563;DHT22;266;49.514;8.294;2022-11-20T16:50:47;8.40;99.90
563;DHT22;266;49.514;8.294;2022-11-20T16:53:16;8.40;99.90
563;DHT22;266;49.514;8.294;2022-11-20T16:55:45;8.40;99.90
563;DHT22;266;49.514;8.294;2022-11-20T16:58:13;8.40;99.90
563;DHT22;266;49.514;8.294;2022-11-20T17:00:41;8.40;99.90
563;DHT22;266;49.514;8.294;2022-11-20T17:03:18;8.30;99.90
563;DHT22;266;49.514;8.294;2022-11-20T17:05:46;8.30;99.90
563;DHT22;266;49.514;8.294;2022-11-20T17:08:14;8.20;99.90
563;DHT22;266;49.514;8.294;2022-11-20T17:10:42;8.20;99.90
563;DHT22;266;49.514;8.294;2022-11-20T17:13:10;8.20;99.90
563;DHT22;266;49.514;8.294;2022-11-20T17:15:38;8.10;99.90
563;DHT22;266;49.514;8.294;2022-11-20T17:18:06;8.10;99.90
563;DHT22;266;49.514;8.294;2022-11-20T17:20:35;8.10;99.90
563;DHT22;266;49.514;8.294;2022-11-20T17:23:03;8.10;99.90
563;DHT22;266;49.514;8.294;2022-11-20T17:25:32;8.00;99.90
563;DHT22;266;49.514;8.294;2022-11-20T17:28:00;8.00;99.90